Time;durP1;ratioP1;P1;durP2;ratioP2;P2;SDS_P1;SDS_P2;PMS_P1;PMS_P2;Temp;Humidity;BMP_temperature;BMP_pressure;BME280_temperature;BME280_humidity;BME280_pressure;Samples;Min_cycle;Max_cycle;Signal;HPM_P1;HPM_P2
2023/08/22 00:00:53;;;;;;;11.48;6.30;;;17.70;99.90;;;;;;5129284;27;20090;-56
2023/08/22 00:03:19;;;;;;;9.80;6.05;;;17.60;99.90;;;;;;5123382;27;20765;-58
2023/08/22 00:05:45;;;;;;;12.43;6.28;;;17.50;99.90;;;;;;5125200;27;20055;-57
2023/08/22 00:08:10;;;;;;;10.27;5.78;;;17.50;99.90;;;;;;5122866;27;20517;-56
2023/08/22 00:10:36;;;;;;;8.43;5.90;;;17.50;99.90;;;;;;5085594;27;1150136;-58
2023/08/22 00:13:03;;;;;;;6.57;4.93;;;17.60;99.90;;;;;;5121789;27;20047;-57
2023/08/22 00:15:29;;;;;;;7.30;5.28;;;17.60;99.90;;;;;;5128490;27;20046;-57
2023/08/22 00:17:55;;;;;;;6.75;5.22;;;17.60;99.90;;;;;;5125266;27;20496;-56
2023/08/22 00:20:22;;;;;;;5.45;4.30;;;17.70;99.90;;;;;;5124307;27;20047;-57
2023/08/22 00:22:51;;;;;;;5.05;4.55;;;17.60;99.90;;;;;;5128045;27;20141;-57
2023/08/22 00:25:17;;;;;;;7.22;5.68;;;17.60;99.90;;;;;;5129734;27;20086;-56
2023/08/22 00:27:43;;;;;;;7.13;4.97;;;17.60;99.90;;;;;;5129442;27;20583;-56
2023/08/22 00:30:09;;;;;;;8.18;5.25;;;17.60;99.90;;;;;;5129104;27;20774;-57
2023/08/22 00:32:35;;;;;;;6.28;5.57;;;17.60;99.90;;;;;;5110306;27;20071;-57
2023/08/22 00:35:01;;;;;;;10.35;6.43;;;17.60;99.90;;;;;;5127686;27;20470;-56
2023/08/22 00:37:27;;;;;;;8.30;6.00;;;17.60;99.90;;;;;;5132294;27;20051;-56
2023/08/22 00:39:53;;;;;;;10.10;5.72;;;17.60;99.90;;;;;;5125610;27;20703;-57
2023/08/22 00:42:19;;;;;;;9.77;6.10;;;17.60;99.90;;;;;;5131647;27;20079;-56
2023/08/22 00:44:45;;;;;;;9.18;7.20;;;17.60;99.90;;;;;;5127075;27;20089;-56
2023/08/22 00:47:10;;;;;;;8.25;6.45;;;17.60;99.90;;;;;;5131216;27;20055;-57
2023/08/22 00:49:37;;;;;;;10.27;7.55;;;17.60;99.90;;;;;;5132866;27;20495;-58
2023/08/22 00:52:04;;;;;;;11.73;6.28;;;17.70;99.90;;;;;;5125675;27;20051;-57
2023/08/22 00:54:31;;;;;;;8.90;6.38;;;17.70;99.90;;;;;;5123373;27;20055;-58
2023/08/22 00:56:57;;;;;;;8.90;6.82;;;17.70;99.90;;;;;;5125147;27;20059;-58
2023/08/22 00:59:25;;;;;;;10.18;7.20;;;17.70;99.90;;;;;;5131064;27;20059;-57
2023/08/22 01:01:51;;;;;;;9.07;7.20;;;17.70;99.90;;;;;;5130669;27;20081;-56
2023/08/22 01:04:17;;;;;;;10.20;7.15;;;17.70;99.90;;;;;;5126393;27;20161;-57
2023/08/22 01:06:50;;;;;;;10.55;7.68;;;17.70;99.90;;;;;;5131792;27;20713;-58
2023/08/22 01:09:50;;;;;;;10.80;7.93;;;17.70;99.90;;;;;;5109951;27;20606;-57
2023/08/22 01:12:34;;;;;;;10.70;8.30;;;17.60;99.90;;;;;;5128951;27;20054;-57
2023/08/22 01:15:24;;;;;;;8.95;7.28;;;17.60;99.90;;;;;;5123924;27;20054;-57
2023/08/22 01:17:56;;;;;;;9.38;6.63;;;17.50;99.90;;;;;;5107263;27;20522;-56
2023/08/22 01:20:22;;;;;;;13.85;8.27;;;17.50;99.90;;;;;;5118647;27;20086;-58
2023/08/22 01:22:51;;;;;;;8.38;6.53;;;17.50;99.90;;;;;;5130448;27;20167;-57
2023/08/22 01:25:17;;;;;;;10.40;7.97;;;17.50;99.90;;;;;;5115264;27;20057;-59
2023/08/22 01:27:50;;;;;;;11.98;7.75;;;17.50;99.90;;;;;;5132126;27;20408;-57
2023/08/22 01:30:24;;;;;;;11.43;8.93;;;17.50;99.90;;;;;;5115451;27;20062;-56
2023/08/22 01:32:52;;;;;;;9.50;6.78;;;17.50;99.90;;;;;;5111148;27;20062;-56
2023/08/22 01:35:22;;;;;;;10.55;6.32;;;17.50;99.90;;;;;;5125364;27;20096;-57
2023/08/22 01:37:53;;;;;;;8.45;6.72;;;17.50;99.90;;;;;;5130405;27;20051;-57
2023/08/22 01:40:19;;;;;;;11.20;6.80;;;17.50;99.90;;;;;;5106985;27;20134;-57
2023/08/22 01:42:45;;;;;;;9.63;7.15;;;17.50;99.90;;;;;;5120729;27;20058;-59
2023/08/22 01:45:10;;;;;;;11.77;7.57;;;17.50;99.90;;;;;;5127452;27;20063;-58
2023/08/22 01:47:36;;;;;;;12.43;7.28;;;17.50;99.90;;;;;;5125288;27;20504;-58
2023/08/22 01:50:05;;;;;;;8.88;6.80;;;17.50;99.90;;;;;;5129985;27;20108;-58
2023/08/22 01:52:31;;;;;;;10.23;7.25;;;17.50;99.90;;;;;;5127348;27;20067;-58
2023/08/22 01:54:57;;;;;;;10.10;7.28;;;17.50;99.90;;;;;;5129037;27;20108;-58
2023/08/22 01:57:22;;;;;;;8.45;6.78;;;17.50;99.90;;;;;;5134805;27;20479;-58
2023/08/22 01:59:51;;;;;;;10.25;7.32;;;17.40;99.90;;;;;;5128888;27;20083;-58
2023/08/22 02:02:17;;;;;;;10.90;6.95;;;17.40;99.90;;;;;;5129271;27;20062;-57
2023/08/22 02:04:43;;;;;;;7.45;6.70;;;17.40;99.90;;;;;;5125131;27;20063;-57
2023/08/22 02:07:08;;;;;;;10.27;6.88;;;17.40;99.90;;;;;;5127184;27;20063;-56
2023/08/22 02:09:35;;;;;;;9.82;6.70;;;17.40;99.90;;;;;;5127311;27;20081;-56
2023/08/22 02:12:00;;;;;;;8.25;6.78;;;17.60;99.90;;;;;;5109513;27;20062;-56
2023/08/22 02:14:26;;;;;;;9.60;7.07;;;17.30;99.90;;;;;;5118853;27;20058;-56
2023/08/22 02:16:52;;;;;;;9.55;6.47;;;17.30;99.90;;;;;;5123734;27;20043;-54
2023/08/22 02:19:17;;;;;;;7.35;5.82;;;17.30;99.90;;;;;;5131872;27;20660;-56
2023/08/22 02:21:43;;;;;;;6.57;5.60;;;17.30;99.90;;;;;;5125580;27;20228;-56
2023/08/22 02:24:09;;;;;;;7.57;4.93;;;17.20;99.90;;;;;;5129013;27;20087;-56
2023/08/22 02:26:34;;;;;;;6.90;5.22;;;17.20;99.90;;;;;;5119383;27;20059;-56
2023/08/22 02:29:00;;;;;;;8.63;7.68;;;17.10;99.90;;;;;;5110680;27;20063;-59
2023/08/22 02:31:26;;;;;;;10.88;6.70;;;17.00;99.90;;;;;;5127292;27;20118;-57
2023/08/22 02:33:51;;;;;;;11.23;7.72;;;17.00;99.90;;;;;;5122557;27;20050;-57
2023/08/22 02:36:17;;;;;;;9.95;7.68;;;16.90;99.90;;;;;;5094272;27;21221;-57
2023/08/22 02:38:43;;;;;;;9.13;7.05;;;16.90;99.90;;;;;;5113684;27;20830;-59
2023/08/22 02:41:08;;;;;;;12.93;6.93;;;16.90;99.90;;;;;;5128847;27;20089;-57
2023/08/22 02:43:34;;;;;;;11.23;8.57;;;16.80;99.90;;;;;;5106259;27;20142;-57
2023/08/22 02:46:00;;;;;;;11.02;7.65;;;16.60;99.90;;;;;;5125382;27;20082;-56
2023/08/22 02:48:26;;;;;;;9.65;7.50;;;16.50;99.90;;;;;;5126215;27;20059;-57
2023/08/22 02:50:51;;;;;;;9.63;6.75;;;16.30;99.90;;;;;;5121673;27;20310;-55
2023/08/22 02:53:17;;;;;;;10.20;7.70;;;16.40;99.90;;;;;;5129806;27;20138;-56
2023/08/22 02:55:50;;;;;;;10.85;7.70;;;16.40;99.90;;;;;;5123667;27;20066;-56
2023/08/22 02:58:16;;;;;;;10.48;8.23;;;16.40;99.90;;;;;;5116453;27;20050;-56
2023/08/22 03:00:45;;;;;;;12.45;9.25;;;16.40;99.90;;;;;;5126629;27;20428;-56
2023/08/22 03:03:11;;;;;;;11.00;8.43;;;16.30;99.90;;;;;;5126486;27;20063;-57
2023/08/22 03:05:37;;;;;;;11.98;8.27;;;16.30;99.90;;;;;;5126899;27;20744;-56
2023/08/22 03:08:03;;;;;;;10.73;8.48;;;16.40;99.90;;;;;;5067572;27;20081;-56
2023/08/22 03:10:29;;;;;;;9.82;7.72;;;16.40;99.90;;;;;;5129158;27;20062;-56
2023/08/22 03:12:54;;;;;;;10.32;6.93;;;16.30;99.90;;;;;;5122680;27;20111;-56
2023/08/22 03:15:20;;;;;;;8.63;7.03;;;16.40;99.90;;;;;;5127769;27;20526;-56
2023/08/22 03:17:46;;;;;;;7.03;5.80;;;16.40;99.90;;;;;;5117437;27;20059;-56
2023/08/22 03:20:12;;;;;;;11.93;7.53;;;16.40;99.90;;;;;;5123787;27;20154;-56
2023/08/22 03:22:37;;;;;;;8.35;7.05;;;16.30;99.90;;;;;;5128338;27;20496;-56
2023/08/22 03:25:03;;;;;;;10.43;7.50;;;16.30;99.90;;;;;;5123916;27;20492;-56
2023/08/22 03:27:29;;;;;;;10.80;7.43;;;16.30;99.90;;;;;;5127173;27;20050;-56
2023/08/22 03:29:54;;;;;;;10.15;7.95;;;16.30;99.90;;;;;;5108406;27;20054;-56
2023/08/22 03:32:20;;;;;;;12.68;9.60;;;16.30;99.90;;;;;;5122661;27;20046;-57
2023/08/22 03:34:46;;;;;;;8.85;7.85;;;16.30;99.90;;;;;;5129094;27;20055;-56
2023/08/22 03:37:11;;;;;;;9.60;7.15;;;16.20;99.90;;;;;;5127407;27;20504;-58
2023/08/22 03:39:37;;;;;;;8.52;7.13;;;16.20;99.90;;;;;;5125649;27;20154;-57
2023/08/22 03:42:03;;;;;;;8.90;7.22;;;16.10;99.90;;;;;;5117586;27;20561;-57
2023/08/22 03:44:30;;;;;;;8.55;6.43;;;16.00;99.90;;;;;;5125545;27;20407;-57
2023/08/22 03:46:56;;;;;;;8.93;6.78;;;15.90;99.90;;;;;;5126022;27;20055;-61
2023/08/22 03:49:21;;;;;;;8.10;7.30;;;15.90;99.90;;;;;;5125871;27;20050;-56
2023/08/22 03:51:50;;;;;;;8.13;5.85;;;15.90;99.90;;;;;;5126637;27;20051;-62
2023/08/22 03:54:16;;;;;;;7.22;6.13;;;15.90;99.90;;;;;;5112314;27;20062;-57
2023/08/22 03:56:41;;;;;;;7.43;5.38;;;15.90;99.90;;;;;;5127342;27;20055;-58
2023/08/22 03:59:07;;;;;;;9.57;6.38;;;15.80;99.90;;;;;;5105062;27;20070;-58
2023/08/22 04:01:33;;;;;;;7.70;7.00;;;15.80;99.90;;;;;;5134585;27;20062;-56
2023/08/22 04:03:58;;;;;;;11.23;6.75;;;15.70;99.90;;;;;;5121827;27;20055;-55
2023/08/22 04:06:25;;;;;;;9.95;6.68;;;15.70;99.90;;;;;;5093645;28;20051;-56
2023/08/22 04:08:51;;;;;;;7.97;5.68;;;15.60;99.90;;;;;;5121610;27;20055;-53
2023/08/22 04:11:16;;;;;;;8.63;6.22;;;15.60;99.90;;;;;;5127688;27;20764;-57
2023/08/22 04:13:42;;;;;;;5.32;4.80;;;15.50;99.90;;;;;;5126216;27;20462;-56
2023/08/22 04:16:08;;;;;;;9.98;4.85;;;15.50;99.90;;;;;;5123756;27;20055;-57
2023/08/22 04:18:34;;;;;;;6.88;5.10;;;15.50;99.90;;;;;;5127612;27;20058;-57
2023/08/22 04:20:59;;;;;;;6.82;4.82;;;15.40;99.90;;;;;;5125029;27;20076;-57
2023/08/22 04:23:25;;;;;;;5.75;5.15;;;15.40;99.90;;;;;;5132126;27;20054;-57
2023/08/22 04:25:51;;;;;;;5.50;4.63;;;15.40;99.90;;;;;;5126666;27;20047;-56
2023/08/22 04:28:17;;;;;;;7.60;4.43;;;15.30;99.90;;;;;;5127769;27;20050;-57
2023/08/22 04:30:43;;;;;;;4.93;4.25;;;15.30;99.90;;;;;;5126079;27;20051;-57
2023/08/22 04:33:09;;;;;;;5.43;3.67;;;15.20;99.90;;;;;;5068556;27;1104695;-57
2023/08/22 04:35:34;;;;;;;4.28;3.90;;;15.30;99.90;;;;;;5127062;27;20086;-56
2023/08/22 04:38:00;;;;;;;4.88;3.47;;;15.20;99.90;;;;;;5124771;27;20055;-57
2023/08/22 04:40:26;;;;;;;5.35;3.75;;;15.20;99.90;;;;;;5127265;27;20054;-57
2023/08/22 04:42:51;;;;;;;4.45;3.45;;;15.20;99.90;;;;;;5123558;27;20055;-55
2023/08/22 04:45:17;;;;;;;4.20;3.20;;;15.10;99.90;;;;;;5127678;27;20407;-57
2023/08/22 04:47:43;;;;;;;2.90;2.60;;;15.10;99.90;;;;;;5126432;27;20082;-56
2023/08/22 04:50:09;;;;;;;4.13;2.97;;;15.10;99.90;;;;;;5121037;27;20070;-57
2023/08/22 04:52:35;;;;;;;8.27;3.63;;;15.10;99.90;;;;;;5128609;27;20059;-58
2023/08/22 04:55:00;;;;;;;6.50;3.70;;;15.10;99.90;;;;;;5093445;28;20097;-57
2023/08/22 04:57:26;;;;;;;5.65;4.70;;;15.10;99.90;;;;;;5118463;27;20058;-58
2023/08/22 04:59:53;;;;;;;4.78;3.85;;;15.00;99.90;;;;;;5129969;27;20050;-56
2023/08/22 05:02:21;;;;;;;5.95;4.95;;;15.00;99.90;;;;;;5124818;27;20145;-58
2023/08/22 05:04:51;;;;;;;6.80;4.35;;;15.00;99.90;;;;;;5126797;27;20062;-57
2023/08/22 05:07:16;;;;;;;4.80;4.40;;;15.00;99.90;;;;;;5116186;27;20059;-58
2023/08/22 05:09:42;;;;;;;5.13;4.50;;;15.00;99.90;;;;;;5131043;27;20058;-57
2023/08/22 05:12:08;;;;;;;7.60;5.68;;;15.00;99.90;;;;;;5135033;27;20100;-56
2023/08/22 05:14:34;;;;;;;9.70;4.93;;;15.00;99.90;;;;;;5138854;27;20554;-58
2023/08/22 05:16:59;;;;;;;6.38;4.38;;;14.90;99.90;;;;;;5137253;27;20161;-58
2023/08/22 05:19:25;;;;;;;8.57;4.53;;;15.00;99.90;;;;;;5125392;27;20587;-58
2023/08/22 05:21:51;;;;;;;7.80;4.18;;;15.00;99.90;;;;;;5129385;27;20055;-57
2023/08/22 05:24:16;;;;;;;5.38;4.57;;;15.10;99.90;;;;;;5126030;27;20059;-58
2023/08/22 05:26:42;;;;;;;3.97;3.58;;;15.10;99.90;;;;;;5130287;27;20065;-56
2023/08/22 05:29:08;;;;;;;5.47;3.90;;;15.10;99.90;;;;;;5127706;27;20085;-57
2023/08/22 05:31:33;;;;;;;4.97;3.67;;;15.10;99.90;;;;;;5128296;27;20059;-57
2023/08/22 05:33:59;;;;;;;6.03;4.25;;;15.20;99.90;;;;;;5128162;27;20142;-56
2023/08/22 05:36:25;;;;;;;7.85;4.32;;;15.40;99.90;;;;;;5127746;27;20123;-56
2023/08/22 05:38:51;;;;;;;3.38;3.08;;;15.60;99.90;;;;;;5130555;27;20043;-55
2023/08/22 05:41:17;;;;;;;7.82;4.70;;;15.60;99.90;;;;;;5127646;27;20154;-56
2023/08/22 05:43:43;;;;;;;4.28;3.67;;;15.80;99.90;;;;;;5124805;27;20053;-56
2023/08/22 05:46:09;;;;;;;5.18;4.15;;;15.90;99.90;;;;;;5130620;27;20062;-56
2023/08/22 05:48:35;;;;;;;5.63;4.05;;;16.10;99.90;;;;;;5125149;27;20051;-56
2023/08/22 05:51:02;;;;;;;6.00;5.15;;;16.30;99.90;;;;;;5130924;27;20100;-57
2023/08/22 05:53:28;;;;;;;9.52;5.75;;;16.40;99.90;;;;;;5119238;27;20067;-56
2023/08/22 05:55:55;;;;;;;9.60;5.75;;;16.50;99.90;;;;;;5100533;27;20069;-57
2023/08/22 05:58:21;;;;;;;6.47;5.63;;;16.20;99.90;;;;;;5128342;27;20142;-56
2023/08/22 06:00:50;;;;;;;7.00;6.30;;;16.60;99.90;;;;;;5104226;27;20154;-56
2023/08/22 06:03:17;;;;;;;11.07;6.03;;;16.70;99.90;;;;;;5129034;27;20062;-57
2023/08/22 06:05:44;;;;;;;12.88;7.07;;;17.00;99.90;;;;;;5124889;27;20111;-57
2023/08/22 06:08:10;;;;;;;8.10;6.75;;;17.20;99.90;;;;;;5124019;27;20516;-57
2023/08/22 06:10:35;;;;;;;8.30;6.55;;;17.40;99.90;;;;;;5124316;27;20120;-58
2023/08/22 06:13:01;;;;;;;9.02;7.07;;;17.50;99.90;;;;;;5123473;27;20058;-63
2023/08/22 06:15:27;;;;;;;9.63;7.43;;;17.60;99.90;;;;;;5129721;27;20728;-57
2023/08/22 06:17:52;;;;;;;9.98;6.97;;;17.70;99.90;;;;;;5141223;27;20147;-56
2023/08/22 06:20:18;;;;;;;10.18;8.27;;;17.90;99.90;;;;;;5146256;27;20091;-57
2023/08/22 06:22:44;;;;;;;10.35;6.63;;;18.10;99.90;;;;;;5146073;27;20412;-57
2023/08/22 06:25:09;;;;;;;10.38;6.07;;;18.30;99.90;;;;;;5145481;27;20946;-57
2023/08/22 06:27:35;;;;;;;7.70;6.15;;;18.40;99.90;;;;;;5126850;27;20515;-57
2023/08/22 06:30:02;;;;;;;10.95;6.03;;;18.50;99.90;;;;;;5141689;27;20050;-57
2023/08/22 06:32:27;;;;;;;7.93;5.57;;;18.60;99.90;;;;;;5142556;27;20046;-58
2023/08/22 06:34:57;;;;;;;11.38;5.80;;;18.70;99.90;;;;;;5145348;27;20046;-57
2023/08/22 06:37:23;;;;;;;10.18;5.70;;;18.90;99.90;;;;;;5143585;27;20061;-58
2023/08/22 06:39:52;;;;;;;9.43;6.57;;;19.30;99.90;;;;;;5146210;27;20046;-56
2023/08/22 06:42:17;;;;;;;9.13;6.15;;;19.40;99.90;;;;;;5126947;27;20057;-57
2023/08/22 06:44:43;;;;;;;13.93;6.18;;;19.70;99.90;;;;;;5141493;27;20051;-57
2023/08/22 06:47:09;;;;;;;7.25;5.78;;;19.90;99.90;;;;;;5139769;27;20063;-56
2023/08/22 06:49:35;;;;;;;8.95;5.72;;;20.10;99.90;;;;;;5146442;27;20042;-57
2023/08/22 06:52:01;;;;;;;8.90;5.18;;;20.60;99.90;;;;;;5137875;27;20046;-57
2023/08/22 06:54:26;;;;;;;9.52;5.68;;;20.90;99.90;;;;;;5127329;27;20636;-57
2023/08/22 06:56:52;;;;;;;9.30;5.65;;;21.10;99.90;;;;;;5145113;27;20392;-57
2023/08/22 06:59:18;;;;;;;12.05;6.32;;;21.00;99.90;;;;;;5143486;27;20058;-57
2023/08/22 07:01:43;;;;;;;12.13;5.55;;;21.20;99.90;;;;;;5146686;27;20063;-57
2023/08/22 07:04:09;;;;;;;8.68;5.32;;;21.30;99.90;;;;;;5124545;27;20063;-57
2023/08/22 07:06:35;;;;;;;8.65;5.47;;;21.30;99.90;;;;;;5141030;27;20043;-58
2023/08/22 07:09:00;;;;;;;8.80;5.32;;;21.40;99.90;;;;;;5138029;27;20055;-61
2023/08/22 07:11:26;;;;;;;10.38;5.72;;;21.60;99.90;;;;;;5126173;27;20055;-63
2023/08/22 07:13:52;;;;;;;10.82;6.00;;;21.90;99.90;;;;;;5141512;27;20047;-61
2023/08/22 07:16:17;;;;;;;7.65;5.45;;;22.10;99.90;;;;;;5133336;27;20138;-57
2023/08/22 07:18:43;;;;;;;5.25;4.22;;;22.10;99.90;;;;;;5133646;27;20055;-57
2023/08/22 07:21:09;;;;;;;8.75;4.63;;;22.30;99.90;;;;;;5121035;27;20067;-57
2023/08/22 07:23:34;;;;;;;9.07;5.35;;;22.60;99.90;;;;;;5121346;27;20055;-56
2023/08/22 07:26:01;;;;;;;8.35;4.82;;;22.70;99.90;;;;;;5121452;27;20078;-57
2023/08/22 07:28:27;;;;;;;8.25;4.35;;;22.70;99.90;;;;;;5118964;27;20051;-56
2023/08/22 07:30:53;;;;;;;6.82;4.18;;;22.90;99.90;;;;;;5122257;27;20095;-56
2023/08/22 07:33:19;;;;;;;5.10;4.13;;;23.10;99.90;;;;;;5121815;27;20111;-57
2023/08/22 07:35:46;;;;;;;10.70;4.10;;;22.90;99.90;;;;;;5144363;27;20058;-57
2023/08/22 07:38:11;;;;;;;6.13;3.58;;;23.20;99.90;;;;;;5128918;27;20504;-57
2023/08/22 07:40:39;;;;;;;5.82;3.58;;;23.40;99.90;;;;;;5123449;27;20051;-57
2023/08/22 07:43:05;;;;;;;8.05;3.38;;;23.50;99.90;;;;;;5144380;27;20402;-57
2023/08/22 07:45:31;;;;;;;5.90;3.20;;;23.50;99.90;;;;;;5146647;27;20540;-58
2023/08/22 07:47:56;;;;;;;5.25;3.13;;;23.60;99.90;;;;;;5140650;27;20162;-57
2023/08/22 07:50:22;;;;;;;5.68;3.08;;;23.80;99.90;;;;;;5115589;27;20058;-57
2023/08/22 07:52:52;;;;;;;4.70;2.92;;;24.10;99.90;;;;;;5111561;28;20471;-57
2023/08/22 07:55:17;;;;;;;3.75;3.28;;;24.00;99.90;;;;;;5127605;27;20838;-57
2023/08/22 07:57:43;;;;;;;6.75;3.72;;;24.00;99.90;;;;;;5104478;28;20057;-57
2023/08/22 08:00:11;;;;;;;7.13;2.67;;;23.90;99.90;;;;;;5114046;28;20062;-57
2023/08/22 08:02:38;;;;;;;5.15;3.17;;;23.90;99.90;;;;;;5112701;28;20134;-57
2023/08/22 08:05:04;;;;;;;3.65;1.98;;;24.10;99.90;;;;;;5109412;28;20166;-57
2023/08/22 08:07:30;;;;;;;4.93;2.67;;;24.40;99.90;;;;;;5114170;28;20048;-57
2023/08/22 08:09:56;;;;;;;8.32;3.42;;;24.40;99.90;;;;;;5112117;28;20065;-56
2023/08/22 08:12:22;;;;;;;3.58;2.13;;;24.30;99.90;;;;;;5120472;27;20101;-58
2023/08/22 08:14:51;;;;;;;3.80;2.60;;;24.60;99.90;;;;;;5115258;27;20051;-58
2023/08/22 08:17:18;;;;;;;5.00;2.47;;;24.40;99.90;;;;;;5129662;27;20056;-57
2023/08/22 08:19:45;;;;;;;4.18;2.15;;;24.90;99.90;;;;;;5107447;28;20055;-57
2023/08/22 08:22:11;;;;;;;7.93;2.85;;;24.90;99.90;;;;;;5126918;27;20070;-57
2023/08/22 08:24:40;;;;;;;4.22;2.45;;;25.40;99.90;;;;;;5124826;28;20412;-58
2023/08/22 08:27:06;;;;;;;3.17;2.05;;;25.70;99.90;;;;;;5084963;28;20138;-57
2023/08/22 08:29:32;;;;;;;3.47;2.58;;;26.20;99.90;;;;;;5133610;27;20165;-57
2023/08/22 08:31:58;;;;;;;5.30;2.20;;;26.40;99.90;;;;;;5136865;27;20050;-57
2023/08/22 08:34:24;;;;;;;5.35;2.80;;;26.30;99.90;;;;;;5143833;27;20054;-57
2023/08/22 08:36:50;;;;;;;3.13;1.55;;;26.10;99.90;;;;;;5143686;27;20494;-56
2023/08/22 08:39:17;;;;;;;2.67;1.63;;;26.40;99.90;;;;;;5143895;27;20115;-57
2023/08/22 08:41:50;;;;;;;2.33;1.40;;;26.40;99.90;;;;;;5146855;27;20050;-57
2023/08/22 08:44:16;;;;;;;1.88;1.30;;;26.30;99.90;;;;;;5144676;27;20566;-57
2023/08/22 08:46:43;;;;;;;3.50;1.40;;;26.50;99.90;;;;;;5128846;27;20047;-58
2023/08/22 08:49:09;;;;;;;2.47;1.30;;;26.80;99.90;;;;;;5076067;27;1125664;-58
2023/08/22 08:51:36;;;;;;;3.00;1.35;;;26.70;99.90;;;;;;5147420;27;20122;-58
2023/08/22 08:54:04;;;;;;;2.15;0.90;;;26.90;99.90;;;;;;5114471;27;20073;-57
2023/08/22 08:56:30;;;;;;;2.28;0.90;;;27.20;99.90;;;;;;5127627;27;20042;-58
2023/08/22 08:58:56;;;;;;;1.23;1.10;;;27.70;99.90;;;;;;5112184;27;20051;-57
2023/08/22 09:01:25;;;;;;;5.13;1.73;;;27.70;99.90;;;;;;5135152;27;20058;-57
2023/08/22 09:03:51;;;;;;;1.27;0.80;;;27.10;99.90;;;;;;5150015;27;20042;-56
2023/08/22 09:06:18;;;;;;;2.05;1.30;;;27.30;99.90;;;;;;5149536;27;20065;-57
2023/08/22 09:08:50;;;;;;;2.20;0.70;;;27.10;99.90;;;;;;5151166;27;20057;-58
2023/08/22 09:11:26;;;;;;;1.67;1.13;;;27.90;99.90;;;;;;5148719;27;20061;-58
2023/08/22 09:13:53;;;;;;;0.90;0.50;;;27.70;99.90;;;;;;5149919;27;20333;-56
2023/08/22 09:16:19;;;;;;;3.03;1.13;;;27.90;99.90;;;;;;5149043;27;20047;-58
2023/08/22 09:18:44;;;;;;;2.28;1.10;;;28.40;99.90;;;;;;5150347;27;20058;-58
2023/08/22 09:21:10;;;;;;;2.85;1.10;;;29.20;99.90;;;;;;5147968;27;20053;-58
2023/08/22 09:23:36;;;;;;;3.28;1.00;;;29.20;99.90;;;;;;5150819;27;20138;-58
2023/08/22 09:26:02;;;;;;;4.88;1.08;;;29.10;99.90;;;;;;5147931;27;20180;-58
2023/08/22 09:28:28;;;;;;;3.03;0.75;;;28.30;99.90;;;;;;5138912;27;20104;-61
2023/08/22 09:30:54;;;;;;;5.68;2.08;;;28.10;99.90;;;;;;5128152;27;20051;-58
2023/08/22 09:33:20;;;;;;;1.90;1.00;;;28.50;99.90;;;;;;5117796;27;20063;-58
2023/08/22 09:38:12;;;;;;;0.98;0.70;;;28.60;99.90;;;;;;5130839;27;20069;-58
2023/08/22 09:40:51;;;;;;;0.75;0.73;;;28.30;99.90;;;;;;5150370;27;20055;-62
2023/08/22 09:43:19;;;;;;;2.28;1.00;;;27.40;99.90;;;;;;5147839;27;20051;-61
2023/08/22 09:45:45;;;;;;;2.33;0.93;;;26.90;99.90;;;;;;5150253;27;20111;-58
2023/08/22 09:48:22;;;;;;;2.35;1.10;;;26.90;99.90;;;;;;5147502;27;20054;-59
2023/08/22 09:50:59;;;;;;;2.30;0.68;;;27.60;99.90;;;;;;5149981;27;20051;-58
2023/08/22 09:53:26;;;;;;;2.67;0.93;;;27.60;99.90;;;;;;5132088;27;20047;-59
2023/08/22 09:55:53;;;;;;;1.42;0.70;;;28.10;99.90;;;;;;5149163;27;20410;-58
2023/08/22 09:58:21;;;;;;;1.85;0.70;;;28.40;99.90;;;;;;5148920;27;20082;-58
2023/08/22 10:00:50;;;;;;;1.98;1.10;;;28.50;99.90;;;;;;5139820;27;20058;-58
2023/08/22 10:03:17;;;;;;;2.17;0.85;;;28.20;99.90;;;;;;5133085;27;20062;-58
2023/08/22 10:05:45;;;;;;;1.58;0.73;;;28.30;99.90;;;;;;5129241;27;20059;-58
2023/08/22 10:08:10;;;;;;;1.75;1.02;;;28.50;99.90;;;;;;5119899;27;20055;-58
2023/08/22 10:10:37;;;;;;;1.30;0.95;;;28.70;99.90;;;;;;5129521;27;20062;-58
2023/08/22 10:13:04;;;;;;;1.67;0.80;;;28.70;99.90;;;;;;5119883;27;20141;-58
2023/08/22 10:15:32;;;;;;;1.42;1.02;;;28.50;99.90;;;;;;5128955;27;20484;-58
2023/08/22 10:17:58;;;;;;;0.98;0.70;;;28.40;99.90;;;;;;5126547;27;20626;-57
2023/08/22 10:20:25;;;;;;;2.75;0.88;;;27.60;99.90;;;;;;5124826;27;20407;-58
2023/08/22 10:22:52;;;;;;;1.58;0.90;;;27.60;99.90;;;;;;5128036;27;20055;-58
2023/08/22 10:25:18;;;;;;;3.60;0.82;;;27.50;99.90;;;;;;5123263;27;20047;-57
2023/08/22 10:30:12;;;;;;;3.92;0.80;;;27.90;99.90;;;;;;5145921;27;20518;-58
2023/08/22 10:32:38;;;;;;;1.65;1.00;;;27.40;99.90;;;;;;5149734;27;20050;-58
2023/08/22 10:35:06;;;;;;;4.25;1.15;;;27.30;99.90;;;;;;5146597;27;20096;-59
2023/08/22 10:37:32;;;;;;;2.15;1.13;;;27.90;99.90;;;;;;5147956;27;20054;-58
2023/08/22 10:39:59;;;;;;;1.35;0.90;;;27.90;99.90;;;;;;5146812;27;20411;-59
2023/08/22 10:42:26;;;;;;;3.25;1.08;;;27.90;99.90;;;;;;5149130;27;20133;-58
2023/08/22 10:44:54;;;;;;;2.17;1.10;;;27.90;99.90;;;;;;5148077;27;20078;-57
2023/08/22 10:47:30;;;;;;;2.00;1.10;;;28.60;99.90;;;;;;5147495;27;20139;-58
2023/08/22 10:50:00;;;;;;;4.18;1.88;;;28.70;99.90;;;;;;5128448;27;20070;-58
2023/08/22 10:52:32;;;;;;;2.53;1.40;;;28.70;99.90;;;;;;5148511;27;20192;-58
2023/08/22 10:55:00;;;;;;;3.95;1.85;;;28.60;99.90;;;;;;5146791;27;20046;-58
2023/08/22 10:57:28;;;;;;;2.53;1.77;;;28.70;99.90;;;;;;5130323;27;20550;-58
2023/08/22 10:59:59;;;;;;;3.60;1.40;;;29.30;99.90;;;;;;5120188;27;20513;-56
2023/08/22 11:02:30;;;;;;;3.55;2.15;;;29.60;99.90;;;;;;5148007;27;20053;-58
2023/08/22 11:04:58;;;;;;;2.42;1.92;;;28.80;99.90;;;;;;5127909;27;20100;-58
2023/08/22 11:07:25;;;;;;;5.90;2.30;;;29.10;99.90;;;;;;5148298;27;20046;-60
2023/08/22 11:09:51;;;;;;;5.25;2.10;;;29.10;99.90;;;;;;5147946;27;20495;-55
2023/08/22 11:12:21;;;;;;;4.03;1.77;;;29.30;99.90;;;;;;5147141;27;20089;-67
2023/08/22 11:14:53;;;;;;;4.00;2.10;;;29.50;99.90;;;;;;5148095;27;20043;-62
2023/08/22 11:17:20;;;;;;;3.33;2.05;;;29.70;99.90;;;;;;5129878;27;20974;-60
2023/08/22 11:22:13;;;;;;;2.42;2.00;;;28.40;99.90;;;;;;5146228;27;20066;-58
2023/08/22 11:24:46;;;;;;;5.05;2.15;;;29.10;99.90;;;;;;5148620;27;20187;-60
2023/08/22 11:27:16;;;;;;;3.58;2.10;;;29.80;99.90;;;;;;5145728;27;20055;-58
2023/08/22 11:29:46;;;;;;;2.97;2.25;;;31.50;99.90;;;;;;5128515;27;20043;-58
2023/08/22 11:32:26;;;;;;;5.28;2.80;;;32.30;99.90;;;;;;5125074;27;20150;-58
2023/08/22 11:35:00;;;;;;;5.03;2.50;;;34.00;98.60;;;;;;5120224;27;20131;-58
2023/08/22 11:37:27;;;;;;;6.15;3.22;;;35.30;98.20;;;;;;5122520;27;20116;-60
2023/08/22 11:39:54;;;;;;;3.88;2.47;;;35.70;97.60;;;;;;5126175;27;20051;-58
2023/08/22 11:42:24;;;;;;;6.05;2.58;;;36.60;96.00;;;;;;5094007;28;20047;-59
2023/08/22 11:45:03;;;;;;;3.28;1.73;;;36.50;95.70;;;;;;5114926;27;20381;-60
2023/08/22 11:47:42;;;;;;;2.65;2.15;;;37.00;93.90;;;;;;5127748;27;20051;-58
2023/08/22 11:50:24;;;;;;;3.85;2.17;;;37.80;93.70;;;;;;5122563;27;20070;-61
2023/08/22 11:52:58;;;;;;;3.10;1.83;;;38.30;93.20;;;;;;5127128;27;20078;-60
2023/08/22 11:55:26;;;;;;;5.05;2.08;;;37.80;93.50;;;;;;5145505;27;20158;-61
2023/08/22 11:58:05;;;;;;;4.03;1.38;;;39.50;92.80;;;;;;5146923;27;20050;-60
2023/08/22 12:00:33;;;;;;;4.50;1.08;;;37.40;91.90;;;;;;5132434;27;20051;-59
2023/08/22 12:03:01;;;;;;;3.05;1.02;;;37.50;92.70;;;;;;5123660;28;20078;-58
2023/08/22 12:05:32;;;;;;;2.95;1.30;;;37.70;92.60;;;;;;5124395;28;20051;-58
2023/08/22 12:07:59;;;;;;;2.03;1.23;;;37.90;91.40;;;;;;5125242;28;20051;-58
2023/08/22 12:10:24;;;;;;;1.02;0.95;;;38.90;91.90;;;;;;5124735;28;20047;-58
2023/08/22 12:12:51;;;;;;;2.80;0.90;;;37.70;92.20;;;;;;5126733;28;20049;-61
2023/08/22 12:15:17;;;;;;;1.20;0.70;;;38.90;91.60;;;;;;5133793;27;20093;-60
2023/08/22 12:17:42;;;;;;;0.93;0.60;;;38.70;91.40;;;;;;5131443;27;20705;-59
2023/08/22 12:20:08;;;;;;;2.25;0.80;;;40.10;91.20;;;;;;5126437;27;20058;-58
2023/08/22 12:22:34;;;;;;;1.13;0.30;;;39.50;90.40;;;;;;5131574;27;20059;-59
2023/08/22 12:25:02;;;;;;;2.25;0.63;;;38.80;89.90;;;;;;5127179;27;20051;-59
2023/08/22 12:27:28;;;;;;;1.30;0.75;;;39.10;90.70;;;;;;5129506;27;20055;-59
2023/08/22 12:29:54;;;;;;;0.77;0.50;;;38.80;90.70;;;;;;5144183;27;20055;-58
2023/08/22 12:32:19;;;;;;;0.60;0.30;;;40.00;90.00;;;;;;5151142;27;20054;-59
2023/08/22 12:34:45;;;;;;;1.17;0.77;;;40.70;88.30;;;;;;5151797;27;20039;-58
2023/08/22 12:37:11;;;;;;;1.70;0.55;;;38.90;90.10;;;;;;5128750;27;20111;-59
2023/08/22 12:39:36;;;;;;;1.02;0.70;;;39.30;89.30;;;;;;5151514;27;20046;-58
2023/08/22 12:42:02;;;;;;;0.95;0.40;;;38.10;89.90;;;;;;5130408;27;20543;-58
2023/08/22 12:44:28;;;;;;;1.63;0.40;;;37.30;90.70;;;;;;5151273;27;20046;-58
2023/08/22 12:46:56;;;;;;;1.80;0.38;;;39.20;89.10;;;;;;5149916;27;20082;-57
2023/08/22 12:49:23;;;;;;;1.15;0.38;;;39.40;88.80;;;;;;5150407;27;20051;-58
2023/08/22 12:51:52;;;;;;;0.80;0.55;;;39.70;89.30;;;;;;5151148;27;20054;-60